sensor_id;sensor_type;location;lat;lon;timestamp;pressure;altitude;pressure_sealevel;temperature;humidity
10071;BME280;5074;53.720;10.014;2022-07-03T00:01:27;101386.91;;;17.02;100.00
10071;BME280;5074;53.720;10.014;2022-07-03T00:03:55;101384.00;;;16.89;100.00
10071;BME280;5074;53.720;10.014;2022-07-03T00:06:24;101376.66;;;16.91;100.00
10071;BME280;5074;53.720;10.014;2022-07-03T00:08:53;101377.72;;;16.89;100.00
10071;BME280;5074;53.720;10.014;2022-07-03T00:11:21;101376.97;;;16.85;100.00
10071;BME280;5074;53.720;10.014;2022-07-03T00:13:51;101377.28;;;16.79;100.00
10071;BME280;5074;53.720;10.014;2022-07-03T00:16:19;101361.25;;;16.76;100.00
10071;BME280;5074;53.720;10.014;2022-07-03T00:18:47;101369.53;;;16.73;100.00
10071;BME280;5074;53.720;10.014;2022-07-03T00:21:19;101364.91;;;16.75;100.00
10071;BME280;5074;53.720;10.014;2022-07-03T00:23:52;101363.47;;;16.67;100.00
10071;BME280;5074;53.720;10.014;2022-07-03T00:26:22;101356.09;;;16.71;100.00
10071;BME280;5074;53.720;10.014;2022-07-03T00:28:56;101352.19;;;16.77;100.00
10071;BME280;5074;53.720;10.014;2022-07-03T00:31:25;101354.97;;;16.75;100.00
10071;BME280;5074;53.720;10.014;2022-07-03T00:33:57;101351.66;;;16.70;100.00
10071;BME280;5074;53.720;10.014;2022-07-03T00:36:26;101348.06;;;16.70;100.00
10071;BME280;5074;53.720;10.014;2022-07-03T00:38:56;101342.75;;;16.68;100.00
10071;BME280;5074;53.720;10.014;2022-07-03T00:41:26;101348.88;;;16.72;100.00
10071;BME280;5074;53.720;10.014;2022-07-03T00:43:57;101344.09;;;16.77;100.00
10071;BME280;5074;53.720;10.014;2022-07-03T00:46:26;101342.91;;;16.82;100.00
10071;BME280;5074;53.720;10.014;2022-07-03T00:48:56;101333.28;;;16.77;100.00
10071;BME280;5074;53.720;10.014;2022-07-03T00:51:25;101319.34;;;16.69;100.00
10071;BME280;5074;53.720;10.014;2022-07-03T00:53:56;101330.06;;;16.88;100.00
10071;BME280;5074;53.720;10.014;2022-07-03T00:56:26;101324.50;;;16.91;100.00
10071;BME280;5074;53.720;10.014;2022-07-03T00:58:57;101314.56;;;16.91;100.00
10071;BME280;5074;53.720;10.014;2022-07-03T01:01:29;101314.19;;;16.99;100.00
10071;BME280;5074;53.720;10.014;2022-07-03T01:04:11;101312.72;;;17.09;100.00
10071;BME280;5074;53.720;10.014;2022-07-03T01:06:52;101309.69;;;17.15;100.00
10071;BME280;5074;53.720;10.014;2022-07-03T01:09:28;101305.22;;;17.14;100.00
10071;BME280;5074;53.720;10.014;2022-07-03T01:12:04;101314.75;;;17.22;100.00
10071;BME280;5074;53.720;10.014;2022-07-03T01:14:43;101303.16;;;17.19;100.00
10071;BME280;5074;53.720;10.014;2022-07-03T01:17:20;101309.81;;;17.30;100.00
10071;BME280;5074;53.720;10.014;2022-07-03T01:19:59;101307.91;;;17.32;100.00
10071;BME280;5074;53.720;10.014;2022-07-03T01:22:30;101299.53;;;17.36;100.00
10071;BME280;5074;53.720;10.014;2022-07-03T01:25:12;101299.81;;;17.32;100.00
10071;BME280;5074;53.720;10.014;2022-07-03T01:27:48;101298.06;;;17.31;100.00
10071;BME280;5074;53.720;10.014;2022-07-03T01:30:24;101292.75;;;17.29;100.00
10071;BME280;5074;53.720;10.014;2022-07-03T01:32:58;101289.22;;;17.27;100.00
10071;BME280;5074;53.720;10.014;2022-07-03T01:35:33;101264.22;;;17.24;100.00
10071;BME280;5074;53.720;10.014;2022-07-03T01:38:05;101284.19;;;17.37;100.00
10071;BME280;5074;53.720;10.014;2022-07-03T01:40:37;101280.47;;;17.40;100.00
10071;BME280;5074;53.720;10.014;2022-07-03T01:43:09;101269.28;;;17.46;100.00
10071;BME280;5074;53.720;10.014;2022-07-03T01:45:41;101267.53;;;17.45;100.00
10071;BME280;5074;53.720;10.014;2022-07-03T01:48:11;101265.81;;;17.44;100.00
10071;BME280;5074;53.720;10.014;2022-07-03T01:50:40;101242.53;;;17.25;100.00
10071;BME280;5074;53.720;10.014;2022-07-03T01:53:10;101264.34;;;17.38;100.00
10071;BME280;5074;53.720;10.014;2022-07-03T01:55:41;101255.44;;;17.36;100.00
10071;BME280;5074;53.720;10.014;2022-07-03T01:58:11;101264.59;;;17.33;100.00
10071;BME280;5074;53.720;10.014;2022-07-03T02:00:44;101258.38;;;17.31;100.00
10071;BME280;5074;53.720;10.014;2022-07-03T02:03:21;101259.38;;;17.30;100.00
10071;BME280;5074;53.720;10.014;2022-07-03T02:05:57;101261.28;;;17.28;100.00
10071;BME280;5074;53.720;10.014;2022-07-03T02:08:35;101255.19;;;17.25;100.00
10071;BME280;5074;53.720;10.014;2022-07-03T02:11:14;101263.72;;;17.33;100.00
10071;BME280;5074;53.720;10.014;2022-07-03T02:14:10;101261.69;;;17.21;100.00
10071;BME280;5074;53.720;10.014;2022-07-03T02:16:54;101266.84;;;17.25;100.00
10071;BME280;5074;53.720;10.014;2022-07-03T02:19:32;101263.69;;;17.17;100.00
10071;BME280;5074;53.720;10.014;2022-07-03T02:22:05;101269.25;;;17.14;100.00
10071;BME280;5074;53.720;10.014;2022-07-03T02:24:41;101255.16;;;17.09;100.00
10071;BME280;5074;53.720;10.014;2022-07-03T02:27:15;101256.44;;;17.01;100.00
10071;BME280;5074;53.720;10.014;2022-07-03T02:29:47;101255.97;;;16.93;100.00
10071;BME280;5074;53.720;10.014;2022-07-03T02:32:23;101248.59;;;16.79;100.00
10071;BME280;5074;53.720;10.014;2022-07-03T02:35:00;101257.66;;;16.78;100.00
10071;BME280;5074;53.720;10.014;2022-07-03T02:37:35;101254.81;;;16.64;100.00
10071;BME280;5074;53.720;10.014;2022-07-03T02:40:07;101248.53;;;16.63;100.00
10071;BME280;5074;53.720;10.014;2022-07-03T02:42:42;101247.84;;;16.60;100.00
10071;BME280;5074;53.720;10.014;2022-07-03T02:45:14;101250.63;;;16.58;100.00
10071;BME280;5074;53.720;10.014;2022-07-03T02:47:51;101234.81;;;16.50;100.00
10071;BME280;5074;53.720;10.014;2022-07-03T02:50:27;101240.47;;;16.46;100.00
10071;BME280;5074;53.720;10.014;2022-07-03T02:53:03;101238.88;;;16.42;100.00
10071;BME280;5074;53.720;10.014;2022-07-03T02:55:42;101229.84;;;16.25;100.00
10071;BME280;5074;53.720;10.014;2022-07-03T02:58:25;101249.44;;;16.29;100.00
10071;BME280;5074;53.720;10.014;2022-07-03T03:01:02;101238.03;;;16.24;100.00
10071;BME280;5074;53.720;10.014;2022-07-03T03:03:35;101239.75;;;16.25;100.00
10071;BME280;5074;53.720;10.014;2022-07-03T03:06:12;101244.75;;;16.32;100.00
10071;BME280;5074;53.720;10.014;2022-07-03T03:08:47;101224.63;;;16.22;100.00
10071;BME280;5074;53.720;10.014;2022-07-03T03:11:22;101229.69;;;16.28;100.00
10071;BME280;5074;53.720;10.014;2022-07-03T03:13:55;101235.25;;;16.25;100.00
10071;BME280;5074;53.720;10.014;2022-07-03T03:16:26;101227.16;;;16.25;100.00
10071;BME280;5074;53.720;10.014;2022-07-03T03:18:54;101227.94;;;16.27;100.00
10071;BME280;5074;53.720;10.014;2022-07-03T03:21:26;101222.78;;;16.23;100.00
10071;BME280;5074;53.720;10.014;2022-07-03T03:23:56;101223.72;;;16.22;100.00
10071;BME280;5074;53.720;10.014;2022-07-03T03:26:26;101228.81;;;16.28;100.00
10071;BME280;5074;53.720;10.014;2022-07-03T03:28:59;101219.31;;;16.21;100.00
10071;BME280;5074;53.720;10.014;2022-07-03T03:31:29;101225.63;;;16.20;100.00
10071;BME280;5074;53.720;10.014;2022-07-03T03:33:58;101229.44;;;16.15;100.00
10071;BME280;5074;53.720;10.014;2022-07-03T03:36:28;101197.94;;;15.98;100.00
10071;BME280;5074;53.720;10.014;2022-07-03T03:38:57;101218.97;;;16.09;100.00
10071;BME280;5074;53.720;10.014;2022-07-03T03:41:25;101214.03;;;16.00;100.00
10071;BME280;5074;53.720;10.014;2022-07-03T03:43:54;101223.19;;;15.97;100.00
10071;BME280;5074;53.720;10.014;2022-07-03T03:46:22;101219.69;;;15.95;100.00
10071;BME280;5074;53.720;10.014;2022-07-03T03:48:51;101216.19;;;15.93;100.00
10071;BME280;5074;53.720;10.014;2022-07-03T03:51:20;101221.25;;;15.82;100.00
10071;BME280;5074;53.720;10.014;2022-07-03T03:53:48;101222.28;;;15.79;100.00
10071;BME280;5074;53.720;10.014;2022-07-03T03:56:18;101217.94;;;15.75;100.00
10071;BME280;5074;53.720;10.014;2022-07-03T03:58:46;101215.69;;;15.85;100.00
10071;BME280;5074;53.720;10.014;2022-07-03T04:01:14;101216.03;;;15.79;100.00
10071;BME280;5074;53.720;10.014;2022-07-03T04:03:43;101207.31;;;15.72;100.00
10071;BME280;5074;53.720;10.014;2022-07-03T04:06:12;101206.22;;;15.76;100.00
10071;BME280;5074;53.720;10.014;2022-07-03T04:08:40;101197.56;;;15.70;100.00
10071;BME280;5074;53.720;10.014;2022-07-03T04:11:08;101211.13;;;15.68;100.00
10071;BME280;5074;53.720;10.014;2022-07-03T04:13:36;101203.84;;;15.70;100.00
10071;BME280;5074;53.720;10.014;2022-07-03T04:16:04;101203.75;;;15.72;100.00
10071;BME280;5074;53.720;10.014;2022-07-03T04:18:33;101204.47;;;15.75;100.00
10071;BME280;5074;53.720;10.014;2022-07-03T04:21:01;101204.47;;;15.75;100.00
10071;BME280;5074;53.720;10.014;2022-07-03T04:23:30;101206.75;;;15.85;100.00
10071;BME280;5074;53.720;10.014;2022-07-03T04:26:03;101212.78;;;15.90;100.00
10071;BME280;5074;53.720;10.014;2022-07-03T04:28:31;101208.66;;;16.00;100.00
10071;BME280;5074;53.720;10.014;2022-07-03T04:31:00;101206.38;;;16.10;100.00
10071;BME280;5074;53.720;10.014;2022-07-03T04:33:28;101197.25;;;16.12;100.00
10071;BME280;5074;53.720;10.014;2022-07-03T04:35:56;101204.56;;;16.28;100.00
10071;BME280;5074;53.720;10.014;2022-07-03T04:38:24;101202.13;;;16.39;100.00
10071;BME280;5074;53.720;10.014;2022-07-03T04:40:53;101212.38;;;16.50;100.00
10071;BME280;5074;53.720;10.014;2022-07-03T04:43:21;101215.81;;;16.70;100.00
10071;BME280;5074;53.720;10.014;2022-07-03T04:45:50;101210.72;;;16.81;100.00
10071;BME280;5074;53.720;10.014;2022-07-03T04:48:18;101209.91;;;16.96;100.00
10071;BME280;5074;53.720;10.014;2022-07-03T04:50:46;101222.22;;;17.02;100.00
10071;BME280;5074;53.720;10.014;2022-07-03T04:53:14;101228.22;;;17.07;100.00
10071;BME280;5074;53.720;10.014;2022-07-03T04:55:42;101239.63;;;17.12;100.00
10071;BME280;5074;53.720;10.014;2022-07-03T04:58:11;101233.56;;;17.25;100.00
10071;BME280;5074;53.720;10.014;2022-07-03T05:00:39;101231.56;;;17.28;100.00
10071;BME280;5074;53.720;10.014;2022-07-03T05:03:10;101229.38;;;17.35;100.00
10071;BME280;5074;53.720;10.014;2022-07-03T05:05:39;101226.59;;;17.36;100.00
10071;BME280;5074;53.720;10.014;2022-07-03T05:08:07;101212.66;;;17.44;100.00
10071;BME280;5074;53.720;10.014;2022-07-03T05:10:35;101223.97;;;17.51;100.00
10071;BME280;5074;53.720;10.014;2022-07-03T05:13:03;101228.25;;;17.55;100.00
10071;BME280;5074;53.720;10.014;2022-07-03T05:15:32;101229.88;;;17.58;100.00
10071;BME280;5074;53.720;10.014;2022-07-03T05:18:00;101230.50;;;17.63;100.00
10071;BME280;5074;53.720;10.014;2022-07-03T05:20:29;101223.34;;;17.62;100.00
10071;BME280;5074;53.720;10.014;2022-07-03T05:22:58;101236.34;;;17.71;100.00
10071;BME280;5074;53.720;10.014;2022-07-03T05:25:28;101226.84;;;17.80;100.00
10071;BME280;5074;53.720;10.014;2022-07-03T05:27:57;101225.19;;;17.93;100.00
10071;BME280;5074;53.720;10.014;2022-07-03T05:30:26;101227.50;;;17.99;100.00
10071;BME280;5074;53.720;10.014;2022-07-03T05:32:55;101228.31;;;18.01;100.00
10071;BME280;5074;53.720;10.014;2022-07-03T05:35:24;101221.81;;;18.04;100.00
10071;BME280;5074;53.720;10.014;2022-07-03T05:37:52;101218.59;;;18.13;100.00
10071;BME280;5074;53.720;10.014;2022-07-03T05:40:20;101221.81;;;18.20;100.00
10071;BME280;5074;53.720;10.014;2022-07-03T05:42:47;101218.53;;;18.29;100.00
10071;BME280;5074;53.720;10.014;2022-07-03T05:45:16;101208.56;;;18.30;100.00
10071;BME280;5074;53.720;10.014;2022-07-03T05:47:44;101223.41;;;18.53;100.00
10071;BME280;5074;53.720;10.014;2022-07-03T05:50:13;101219.66;;;18.70;100.00
10071;BME280;5074;53.720;10.014;2022-07-03T05:52:41;101226.63;;;18.74;100.00
10071;BME280;5074;53.720;10.014;2022-07-03T05:55:09;101231.53;;;18.82;100.00
10071;BME280;5074;53.720;10.014;2022-07-03T05:57:37;101233.72;;;18.91;100.00
10071;BME280;5074;53.720;10.014;2022-07-03T06:00:06;101229.16;;;19.06;100.00
10071;BME280;5074;53.720;10.014;2022-07-03T06:02:34;101230.00;;;19.21;100.00
10071;BME280;5074;53.720;10.014;2022-07-03T06:05:03;101233.59;;;19.36;100.00
10071;BME280;5074;53.720;10.014;2022-07-03T06:07:33;101225.88;;;19.57;100.00
10071;BME280;5074;53.720;10.014;2022-07-03T06:10:01;101212.56;;;19.81;98.31
10071;BME280;5074;53.720;10.014;2022-07-03T06:12:29;101226.38;;;19.91;99.75
10071;BME280;5074;53.720;10.014;2022-07-03T06:14:57;101226.41;;;20.04;97.60
10071;BME280;5074;53.720;10.014;2022-07-03T06:17:28;101193.72;;;19.92;93.60
10071;BME280;5074;53.720;10.014;2022-07-03T06:19:56;101216.56;;;20.16;93.12
10071;BME280;5074;53.720;10.014;2022-07-03T06:22:24;101224.50;;;20.19;92.46
10071;BME280;5074;53.720;10.014;2022-07-03T06:24:54;101220.28;;;20.27;94.51
10071;BME280;5074;53.720;10.014;2022-07-03T06:27:22;101211.63;;;20.35;95.29
10071;BME280;5074;53.720;10.014;2022-07-03T06:29:50;101215.53;;;20.44;93.16
10071;BME280;5074;53.720;10.014;2022-07-03T06:32:18;101219.84;;;20.46;93.38
10071;BME280;5074;53.720;10.014;2022-07-03T06:34:47;101223.03;;;20.53;93.62
10071;BME280;5074;53.720;10.014;2022-07-03T06:37:15;101220.94;;;20.57;91.56
10071;BME280;5074;53.720;10.014;2022-07-03T06:42:12;101211.81;;;20.45;93.12
10071;BME280;5074;53.720;10.014;2022-07-03T06:44:40;101210.63;;;20.36;95.06
10071;BME280;5074;53.720;10.014;2022-07-03T06:47:08;101214.63;;;20.30;93.81
10071;BME280;5074;53.720;10.014;2022-07-03T06:49:36;101227.34;;;20.30;94.26
10071;BME280;5074;53.720;10.014;2022-07-03T06:52:05;101224.06;;;20.25;95.37
10071;BME280;5074;53.720;10.014;2022-07-03T06:54:33;101214.19;;;20.24;94.41
10071;BME280;5074;53.720;10.014;2022-07-03T06:57:05;101216.28;;;20.33;96.15
10071;BME280;5074;53.720;10.014;2022-07-03T06:59:34;101214.53;;;20.32;96.25
10071;BME280;5074;53.720;10.014;2022-07-03T07:02:02;101214.22;;;20.37;95.74
10071;BME280;5074;53.720;10.014;2022-07-03T07:04:31;101211.19;;;20.41;95.75
10071;BME280;5074;53.720;10.014;2022-07-03T07:06:59;101212.25;;;20.39;93.03
10071;BME280;5074;53.720;10.014;2022-07-03T07:09:27;101215.31;;;20.47;94.46
10071;BME280;5074;53.720;10.014;2022-07-03T07:11:55;101220.31;;;20.53;93.63
10071;BME280;5074;53.720;10.014;2022-07-03T07:14:23;101219.44;;;20.53;93.40
10071;BME280;5074;53.720;10.014;2022-07-03T07:16:52;101221.06;;;20.55;95.04
10071;BME280;5074;53.720;10.014;2022-07-03T07:19:21;101220.66;;;20.61;96.23
10071;BME280;5074;53.720;10.014;2022-07-03T07:21:49;101219.47;;;20.65;95.29
10071;BME280;5074;53.720;10.014;2022-07-03T07:24:17;101221.75;;;20.72;95.85
10071;BME280;5074;53.720;10.014;2022-07-03T07:26:45;101218.81;;;20.75;94.36
10071;BME280;5074;53.720;10.014;2022-07-03T07:29:13;101218.72;;;20.76;93.11
10071;BME280;5074;53.720;10.014;2022-07-03T07:31:42;101223.59;;;20.84;93.47
10071;BME280;5074;53.720;10.014;2022-07-03T07:34:12;101227.09;;;20.86;93.82
10071;BME280;5074;53.720;10.014;2022-07-03T07:36:40;101226.00;;;20.89;91.32
10071;BME280;5074;53.720;10.014;2022-07-03T07:39:08;101224.03;;;20.91;90.67
10071;BME280;5074;53.720;10.014;2022-07-03T07:41:37;101226.63;;;20.92;91.63
10071;BME280;5074;53.720;10.014;2022-07-03T07:44:05;101225.53;;;21.08;92.06
10071;BME280;5074;53.720;10.014;2022-07-03T07:46:33;101213.16;;;21.04;92.77
10071;BME280;5074;53.720;10.014;2022-07-03T07:49:02;101223.56;;;21.10;90.64
10071;BME280;5074;53.720;10.014;2022-07-03T07:51:31;101230.41;;;21.15;87.72
10071;BME280;5074;53.720;10.014;2022-07-03T07:54:00;101225.88;;;21.03;85.84
10071;BME280;5074;53.720;10.014;2022-07-03T07:56:28;101230.41;;;21.15;81.68
10071;BME280;5074;53.720;10.014;2022-07-03T07:58:56;101227.47;;;21.19;83.94
10071;BME280;5074;53.720;10.014;2022-07-03T08:01:24;101224.41;;;21.23;85.84
10071;BME280;5074;53.720;10.014;2022-07-03T08:04:10;101225.03;;;21.53;83.25
10071;BME280;5074;53.720;10.014;2022-07-03T08:06:57;101234.19;;;21.76;82.36
10071;BME280;5074;53.720;10.014;2022-07-03T08:09:25;101232.50;;;21.86;77.07
10071;BME280;5074;53.720;10.014;2022-07-03T08:11:53;101236.53;;;21.80;77.75
10071;BME280;5074;53.720;10.014;2022-07-03T08:14:21;101232.66;;;21.72;76.80
10071;BME280;5074;53.720;10.014;2022-07-03T08:16:49;101235.81;;;21.78;78.71
10071;BME280;5074;53.720;10.014;2022-07-03T08:19:18;101232.66;;;21.72;80.74
10071;BME280;5074;53.720;10.014;2022-07-03T08:21:46;101232.31;;;21.76;83.00
10071;BME280;5074;53.720;10.014;2022-07-03T08:24:15;101224.94;;;21.90;75.47
10071;BME280;5074;53.720;10.014;2022-07-03T08:26:44;101231.28;;;21.90;76.56
10071;BME280;5074;53.720;10.014;2022-07-03T08:29:12;101226.22;;;21.97;80.08
10071;BME280;5074;53.720;10.014;2022-07-03T08:31:40;101227.50;;;22.04;82.54
10071;BME280;5074;53.720;10.014;2022-07-03T08:34:08;101234.88;;;22.26;80.77
10071;BME280;5074;53.720;10.014;2022-07-03T08:36:40;101236.94;;;22.47;80.63
10071;BME280;5074;53.720;10.014;2022-07-03T08:39:08;101233.25;;;22.48;79.69
10071;BME280;5074;53.720;10.014;2022-07-03T08:41:39;101231.41;;;22.24;81.31
10071;BME280;5074;53.720;10.014;2022-07-03T08:44:09;101232.91;;;22.28;81.40
10071;BME280;5074;53.720;10.014;2022-07-03T08:46:39;101234.53;;;22.31;77.02
10071;BME280;5074;53.720;10.014;2022-07-03T08:49:09;101233.53;;;22.32;75.59
10071;BME280;5074;53.720;10.014;2022-07-03T08:51:37;101232.44;;;22.34;76.76
10071;BME280;5074;53.720;10.014;2022-07-03T08:54:08;101230.25;;;22.40;72.34
10071;BME280;5074;53.720;10.014;2022-07-03T08:56:39;101225.44;;;22.43;73.33
10071;BME280;5074;53.720;10.014;2022-07-03T08:59:07;101223.75;;;22.65;70.76
10071;BME280;5074;53.720;10.014;2022-07-03T09:01:36;101235.53;;;22.88;71.09
10071;BME280;5074;53.720;10.014;2022-07-03T09:04:11;101239.59;;;22.71;69.08
10071;BME280;5074;53.720;10.014;2022-07-03T09:06:42;101234.50;;;22.78;70.53
10071;BME280;5074;53.720;10.014;2022-07-03T09:09:10;101239.75;;;22.81;70.47
10071;BME280;5074;53.720;10.014;2022-07-03T09:11:40;101245.19;;;22.92;70.66
10071;BME280;5074;53.720;10.014;2022-07-03T09:14:08;101242.97;;;22.97;73.41
10071;BME280;5074;53.720;10.014;2022-07-03T09:16:36;101244.31;;;22.92;71.63
10071;BME280;5074;53.720;10.014;2022-07-03T09:19:05;101240.97;;;22.65;71.16
10071;BME280;5074;53.720;10.014;2022-07-03T09:21:36;101242.91;;;22.63;71.41
10071;BME280;5074;53.720;10.014;2022-07-03T09:24:07;101242.91;;;22.63;71.21
10071;BME280;5074;53.720;10.014;2022-07-03T09:26:51;101251.41;;;22.47;72.60
10071;BME280;5074;53.720;10.014;2022-07-03T09:29:19;101245.84;;;22.49;72.37
10071;BME280;5074;53.720;10.014;2022-07-03T09:31:54;101239.44;;;22.50;74.50
10071;BME280;5074;53.720;10.014;2022-07-03T09:34:22;101252.81;;;22.53;73.51
10071;BME280;5074;53.720;10.014;2022-07-03T09:36:53;101256.53;;;22.52;71.81
10071;BME280;5074;53.720;10.014;2022-07-03T09:39:22;101247.88;;;22.58;72.10
10071;BME280;5074;53.720;10.014;2022-07-03T09:41:57;101244.38;;;22.56;74.84
10071;BME280;5074;53.720;10.014;2022-07-03T09:44:32;101245.16;;;22.58;72.75
10071;BME280;5074;53.720;10.014;2022-07-03T09:47:12;101248.16;;;22.66;73.97
10071;BME280;5074;53.720;10.014;2022-07-03T09:49:45;101248.63;;;22.71;74.33
10071;BME280;5074;53.720;10.014;2022-07-03T09:52:32;101246.75;;;22.72;76.16
10071;BME280;5074;53.720;10.014;2022-07-03T09:55:12;101247.56;;;22.85;77.22
10071;BME280;5074;53.720;10.014;2022-07-03T09:57:43;101248.41;;;22.86;72.30
10071;BME280;5074;53.720;10.014;2022-07-03T10:00:13;101249.63;;;22.70;76.42
10071;BME280;5074;53.720;10.014;2022-07-03T10:02:56;101251.34;;;22.71;78.06
10071;BME280;5074;53.720;10.014;2022-07-03T10:05:27;101247.13;;;22.67;76.32
10071;BME280;5074;53.720;10.014;2022-07-03T10:07:57;101248.16;;;22.66;76.11
10071;BME280;5074;53.720;10.014;2022-07-03T10:10:27;101245.31;;;22.68;78.31
10071;BME280;5074;53.720;10.014;2022-07-03T10:12:58;101244.91;;;22.61;81.47
10071;BME280;5074;53.720;10.014;2022-07-03T10:15:28;101242.81;;;22.76;80.01
10071;BME280;5074;53.720;10.014;2022-07-03T10:17:57;101243.56;;;22.78;79.44
10071;BME280;5074;53.720;10.014;2022-07-03T10:20:28;101240.47;;;22.83;74.57
10071;BME280;5074;53.720;10.014;2022-07-03T10:22:56;101240.34;;;22.84;75.49
10071;BME280;5074;53.720;10.014;2022-07-03T10:25:25;101240.88;;;22.89;66.83
10071;BME280;5074;53.720;10.014;2022-07-03T10:27:54;101233.81;;;22.98;62.24
10071;BME280;5074;53.720;10.014;2022-07-03T10:30:24;101234.50;;;22.78;66.04
10071;BME280;5074;53.720;10.014;2022-07-03T10:32:54;101235.53;;;22.77;61.43
10071;BME280;5074;53.720;10.014;2022-07-03T10:35:25;101236.00;;;22.82;65.04
10071;BME280;5074;53.720;10.014;2022-07-03T10:41:12;101243.22;;;22.94;62.06
10071;BME280;5074;53.720;10.014;2022-07-03T10:44:01;101240.25;;;23.09;60.08
10071;BME280;5074;53.720;10.014;2022-07-03T10:46:48;101244.63;;;23.11;63.84
10071;BME280;5074;53.720;10.014;2022-07-03T10:49:24;101242.13;;;23.31;65.01
10071;BME280;5074;53.720;10.014;2022-07-03T10:51:54;101246.06;;;23.49;60.78
10071;BME280;5074;53.720;10.014;2022-07-03T10:54:24;101233.66;;;23.56;56.45
10071;BME280;5074;53.720;10.014;2022-07-03T10:57:11;101235.38;;;23.69;53.11
10071;BME280;5074;53.720;10.014;2022-07-03T11:00:13;101235.47;;;23.67;54.88
10071;BME280;5074;53.720;10.014;2022-07-03T11:02:46;101235.03;;;23.83;54.72
10071;BME280;5074;53.720;10.014;2022-07-03T11:05:36;101228.19;;;24.00;56.91
10071;BME280;5074;53.720;10.014;2022-07-03T11:08:11;101238.72;;;24.05;58.30
10071;BME280;5074;53.720;10.014;2022-07-03T11:10:41;101229.09;;;24.22;58.99
10071;BME280;5074;53.720;10.014;2022-07-03T11:13:14;101230.91;;;24.33;55.40
10071;BME280;5074;53.720;10.014;2022-07-03T11:15:45;101225.97;;;24.26;53.98
10071;BME280;5074;53.720;10.014;2022-07-03T11:18:20;101230.25;;;24.40;54.88
10071;BME280;5074;53.720;10.014;2022-07-03T11:21:12;101226.97;;;24.25;53.90
10071;BME280;5074;53.720;10.014;2022-07-03T11:23:56;101225.38;;;24.23;54.10
10071;BME280;5074;53.720;10.014;2022-07-03T11:26:28;101222.72;;;24.33;56.01
10071;BME280;5074;53.720;10.014;2022-07-03T11:28:56;101216.38;;;24.32;58.26
10071;BME280;5074;53.720;10.014;2022-07-03T11:31:24;101217.19;;;24.65;55.46
10071;BME280;5074;53.720;10.014;2022-07-03T11:33:58;101220.41;;;25.01;54.37
10071;BME280;5074;53.720;10.014;2022-07-03T11:36:27;101217.59;;;24.82;51.47
10071;BME280;5074;53.720;10.014;2022-07-03T11:39:05;101213.31;;;24.99;53.03
10071;BME280;5074;53.720;10.014;2022-07-03T11:41:45;101212.09;;;25.12;50.79
10071;BME280;5074;53.720;10.014;2022-07-03T11:44:18;101214.97;;;25.11;50.91
10071;BME280;5074;53.720;10.014;2022-07-03T11:46:49;101207.53;;;25.23;50.18
10071;BME280;5074;53.720;10.014;2022-07-03T11:49:21;101207.34;;;25.45;52.19
10071;BME280;5074;53.720;10.014;2022-07-03T11:51:56;101209.81;;;25.78;52.17
10071;BME280;5074;53.720;10.014;2022-07-03T11:54:25;101201.75;;;25.26;51.53
10071;BME280;5074;53.720;10.014;2022-07-03T11:56:54;101208.97;;;25.27;54.57
10071;BME280;5074;53.720;10.014;2022-07-03T11:59:22;101206.25;;;25.27;54.59
10071;BME280;5074;53.720;10.014;2022-07-03T12:01:50;101209.69;;;25.70;54.27
10071;BME280;5074;53.720;10.014;2022-07-03T12:04:21;101206.50;;;25.84;54.53
10071;BME280;5074;53.720;10.014;2022-07-03T12:06:50;101219.88;;;25.58;56.44
10071;BME280;5074;53.720;10.014;2022-07-03T12:09:21;101210.84;;;25.67;58.81
10071;BME280;5074;53.720;10.014;2022-07-03T12:11:53;101214.53;;;25.56;57.86
10071;BME280;5074;53.720;10.014;2022-07-03T12:14:42;101213.22;;;25.41;56.42
10071;BME280;5074;53.720;10.014;2022-07-03T12:17:12;101212.38;;;25.50;56.22
10071;BME280;5074;53.720;10.014;2022-07-03T12:19:46;101215.81;;;25.52;55.78
10071;BME280;5074;53.720;10.014;2022-07-03T12:22:22;101218.25;;;25.36;55.64
10071;BME280;5074;53.720;10.014;2022-07-03T12:25:00;101212.53;;;25.08;53.17
10071;BME280;5074;53.720;10.014;2022-07-03T12:27:30;101211.75;;;24.96;50.18
10071;BME280;5074;53.720;10.014;2022-07-03T12:29:58;101212.09;;;25.53;50.16
10071;BME280;5074;53.720;10.014;2022-07-03T12:32:27;101212.84;;;25.75;47.89
10071;BME280;5074;53.720;10.014;2022-07-03T12:34:57;101204.63;;;25.65;47.49
10071;BME280;5074;53.720;10.014;2022-07-03T12:37:32;101205.75;;;26.50;45.02
10071;BME280;5074;53.720;10.014;2022-07-03T12:42:29;101201.78;;;28.82;40.53
10071;BME280;5074;53.720;10.014;2022-07-03T12:44:57;101200.28;;;28.44;38.75
10071;BME280;5074;53.720;10.014;2022-07-03T12:47:27;101202.28;;;27.97;37.29
10071;BME280;5074;53.720;10.014;2022-07-03T12:49:58;101196.09;;;28.31;37.60
10071;BME280;5074;53.720;10.014;2022-07-03T12:52:28;101197.44;;;28.27;37.86
10071;BME280;5074;53.720;10.014;2022-07-03T12:54:56;101197.34;;;28.19;37.16
10071;BME280;5074;53.720;10.014;2022-07-03T12:57:25;101193.97;;;28.51;35.63
10071;BME280;5074;53.720;10.014;2022-07-03T13:00:26;101196.44;;;29.15;35.54
10071;BME280;5074;53.720;10.014;2022-07-03T13:02:54;101186.44;;;28.80;34.29
10071;BME280;5074;53.720;10.014;2022-07-03T13:05:24;101187.75;;;28.93;34.53
10071;BME280;5074;53.720;10.014;2022-07-03T13:07:53;101175.47;;;30.23;31.42
10071;BME280;5074;53.720;10.014;2022-07-03T13:10:23;101183.03;;;30.29;31.44
10071;BME280;5074;53.720;10.014;2022-07-03T13:12:53;101184.31;;;31.07;30.87
10071;BME280;5074;53.720;10.014;2022-07-03T13:15:25;101182.53;;;31.77;30.26